MOL Partner — 3EBZ5 — position and weather

sailwx.info

Track history (hours):
 
Tides and Currents Weather Stations Pressure Air Temp Water Temp Dewpoint Dewpoint Depression Visibility Wind Speed Wind Dir Waves Ship Positions

MOL Partner

Last reported at 2014-Nov-22 02:18 UTC. Time now 2014-Nov-22 09:01 UTC.
Position N 22°34' E 114°16'.

Length 293 m; draft 9.3 m.

Type: Ship (hazmat cat D). MMSI: 371303000.

Date/timePositionNaut miles runAvg speedWind from/ knotsBaromVisibWave heightAir tempDewpointWater temp
2014-Nov-22 02:18N 22°34' E 114°16'0 0.0
2014-Nov-21 23:30N 22°34' E 114°16'0 0.0
2014-Nov-21 22:24N 22°34' E 114°16'0 0.0
2014-Nov-21 21:24N 22°34' E 114°16'0 0.0
2014-Nov-21 16:18N 22°34' E 114°16'0 0.0
2014-Nov-21 14:33N 22°34' E 114°16'17 2.8
2014-Nov-21 08:33N 22°20' E 114°07'1 0.3
2014-Nov-21 06:21N 22°20' E 114°08'0 0.0
2014-Nov-20 17:33N 22°20' E 114°08'9 6.8
2014-Nov-20 16:12N 22°11' E 114°12'  
2014-Nov-16 22:33N 01°20' E 104°23'1515.2
2014-Nov-16 21:33N 01°16' E 104°08'1414.3
2014-Nov-16 20:33N 01°13' E 103°54'5 4.9
2014-Nov-16 19:30N 01°16' E 103°50'0 0.0
2014-Nov-16 18:30N 01°16' E 103°50'0 0.0
2014-Nov-16 17:33N 01°16' E 103°50'0 0.0
2014-Nov-16 16:30N 01°16' E 103°50'0 0.0
2014-Nov-16 15:33N 01°16' E 103°50'0 0.0
2014-Nov-16 14:30N 01°16' E 103°50'0 0.0
2014-Nov-16 13:30N 01°16' E 103°50'0 0.0
2014-Nov-16 12:33N 01°16' E 103°50'0 0.0
2014-Nov-16 11:30N 01°16' E 103°50'0 0.0
2014-Nov-16 10:30N 01°16' E 103°50'0 0.0
2014-Nov-16 09:33N 01°16' E 103°50'0 0.0
2014-Nov-16 08:12N 01°16' E 103°50'0 0.0
2014-Nov-16 07:30N 01°16' E 103°50'0 0.0
2014-Nov-16 06:30N 01°16' E 103°50'0 0.0
2014-Nov-16 05:33N 01°16' E 103°50'0 0.0
2014-Nov-16 04:30N 01°16' E 103°50'0 0.0
2014-Nov-16 03:33N 01°16' E 103°50'3 3.1
2014-Nov-16 02:33N 01°14' E 103°53'0 0.2
2014-Nov-16 01:33N 01°14' E 103°53'1 1.2
2014-Nov-16 00:33N 01°13' E 103°53'7 7.2
2014-Nov-15 23:33N 01°09' E 103°47'  
Track history (hours):
 
Tides and Currents Weather Stations Pressure Air Temp Water Temp Dewpoint Dewpoint Depression Visibility Wind Speed Wind Dir Waves Ship Positions

MOL Partner

Last reported at 2014-Nov-22 02:18 UTC. Time now 2014-Nov-22 09:01 UTC.
Position N 22°34' E 114°16'.

Length 293 m; draft 9.3 m.

Type: Ship (hazmat cat D). MMSI: 371303000.

Date/timePositionNaut miles runAvg speedWind from/ knotsBaromVisibWave heightAir tempDewpointWater temp
2014-Nov-22 02:18N 22°34' E 114°16'0 0.0
2014-Nov-21 23:30N 22°34' E 114°16'0 0.0
2014-Nov-21 22:24N 22°34' E 114°16'0 0.0
2014-Nov-21 21:24N 22°34' E 114°16'0 0.0
2014-Nov-21 16:18N 22°34' E 114°16'0 0.0
2014-Nov-21 14:33N 22°34' E 114°16'17 2.8
2014-Nov-21 08:33N 22°20' E 114°07'1 0.3
2014-Nov-21 06:21N 22°20' E 114°08'0 0.0
2014-Nov-20 17:33N 22°20' E 114°08'9 6.8
2014-Nov-20 16:12N 22°11' E 114°12'  
2014-Nov-16 22:33N 01°20' E 104°23'1515.2
2014-Nov-16 21:33N 01°16' E 104°08'1414.3
2014-Nov-16 20:33N 01°13' E 103°54'5 4.9
2014-Nov-16 19:30N 01°16' E 103°50'0 0.0
2014-Nov-16 18:30N 01°16' E 103°50'0 0.0
2014-Nov-16 17:33N 01°16' E 103°50'0 0.0
2014-Nov-16 16:30N 01°16' E 103°50'0 0.0
2014-Nov-16 15:33N 01°16' E 103°50'0 0.0
2014-Nov-16 14:30N 01°16' E 103°50'0 0.0
2014-Nov-16 13:30N 01°16' E 103°50'0 0.0
2014-Nov-16 12:33N 01°16' E 103°50'0 0.0
2014-Nov-16 11:30N 01°16' E 103°50'0 0.0
2014-Nov-16 10:30N 01°16' E 103°50'0 0.0
2014-Nov-16 09:33N 01°16' E 103°50'0 0.0
2014-Nov-16 08:12N 01°16' E 103°50'0 0.0
2014-Nov-16 07:30N 01°16' E 103°50'0 0.0
2014-Nov-16 06:30N 01°16' E 103°50'0 0.0
2014-Nov-16 05:33N 01°16' E 103°50'0 0.0
2014-Nov-16 04:30N 01°16' E 103°50'0 0.0
2014-Nov-16 03:33N 01°16' E 103°50'3 3.1
2014-Nov-16 02:33N 01°14' E 103°53'0 0.2
2014-Nov-16 01:33N 01°14' E 103°53'1 1.2
2014-Nov-16 00:33N 01°13' E 103°53'7 7.2
2014-Nov-15 23:33N 01°09' E 103°47'  

Dump ship's entire track history